Time;durP1;ratioP1;P1;durP2;ratioP2;P2;SDS_P1;SDS_P2;PMS_P1;PMS_P2;Temp;Humidity;BMP_temperature;BMP_pressure;BME280_temperature;BME280_humidity;BME280_pressure;Samples;Min_cycle;Max_cycle;Signal;HPM_P1;HPM_P2
2023/06/19 00:01:59;;;;;;;5.60;5.10;;;22.10;49.10;;;;;;5076908;28;20442;-60
2023/06/19 00:04:26;;;;;;;5.80;4.90;;;22.10;49.80;;;;;;5076411;28;20950;-60
2023/06/19 00:06:53;;;;;;;5.47;5.00;;;22.10;49.30;;;;;;5076132;28;20499;-61
2023/06/19 00:09:21;;;;;;;5.77;5.27;;;22.10;49.40;;;;;;5076356;28;20950;-60
2023/06/19 00:11:48;;;;;;;5.30;4.80;;;22.10;49.50;;;;;;5076556;28;21029;-60
2023/06/19 00:14:15;;;;;;;5.40;4.90;;;22.10;49.60;;;;;;5076124;28;20978;-59
2023/06/19 00:16:42;;;;;;;6.70;5.07;;;22.00;49.70;;;;;;5076582;28;20542;-58
2023/06/19 00:19:10;;;;;;;6.03;5.43;;;22.00;49.80;;;;;;5076905;28;20520;-60
2023/06/19 00:21:37;;;;;;;6.07;5.67;;;22.00;50.00;;;;;;5077286;28;20475;-59
2023/06/19 00:24:04;;;;;;;5.63;5.03;;;21.90;50.00;;;;;;5076797;28;20445;-59
2023/06/19 00:26:33;;;;;;;4.93;4.40;;;21.90;50.10;;;;;;5076551;28;20471;-59
2023/06/19 00:28:59;;;;;;;8.47;5.10;;;21.90;50.30;;;;;;5076828;28;20445;-59
2023/06/19 00:31:27;;;;;;;6.40;5.83;;;21.90;50.30;;;;;;5076284;28;20486;-59
2023/06/19 00:33:54;;;;;;;5.07;4.67;;;21.90;50.40;;;;;;5076102;28;20815;-60
2023/06/19 00:36:21;;;;;;;5.73;5.10;;;21.90;50.40;;;;;;5075907;28;20469;-60
2023/06/19 00:38:48;;;;;;;6.20;5.40;;;21.80;50.40;;;;;;5076170;28;20496;-60
2023/06/19 00:41:16;;;;;;;5.30;4.80;;;21.90;50.50;;;;;;5075706;28;20439;-58
2023/06/19 00:43:44;;;;;;;5.60;5.10;;;21.80;50.50;;;;;;5076648;28;20442;-59
2023/06/19 00:46:12;;;;;;;5.50;5.00;;;21.80;50.60;;;;;;5075663;28;20481;-60
2023/06/19 00:48:40;;;;;;;6.00;5.40;;;21.90;50.60;;;;;;5075158;28;20938;-59
2023/06/19 00:51:07;;;;;;;5.13;4.70;;;21.80;50.60;;;;;;5075382;28;20582;-59
2023/06/19 00:53:34;;;;;;;5.73;5.23;;;21.80;50.60;;;;;;5075730;28;20441;-59
2023/06/19 00:56:02;;;;;;;6.47;5.43;;;21.80;50.70;;;;;;5075035;28;20898;-59
2023/06/19 00:58:29;;;;;;;6.37;5.77;;;21.80;50.70;;;;;;5075407;28;20429;-59
2023/06/19 01:00:58;;;;;;;6.00;5.47;;;21.80;50.80;;;;;;5075107;28;20473;-60
2023/06/19 01:03:26;;;;;;;5.50;5.00;;;21.70;50.80;;;;;;5075234;28;20444;-59
2023/06/19 01:05:55;;;;;;;6.03;5.50;;;21.80;51.00;;;;;;5075473;28;20518;-59
2023/06/19 01:08:41;;;;;;;5.43;4.93;;;21.70;51.00;;;;;;5076018;28;20444;-59
2023/06/19 01:11:10;;;;;;;5.97;5.47;;;21.70;51.00;;;;;;5075470;28;20472;-59
2023/06/19 01:13:41;;;;;;;7.07;5.50;;;21.70;51.10;;;;;;5075069;28;20963;-59
2023/06/19 01:16:10;;;;;;;6.00;5.33;;;21.70;51.20;;;;;;5075245;28;20852;-59
2023/06/19 01:18:37;;;;;;;5.40;4.90;;;21.70;51.30;;;;;;5075137;28;20543;-60
2023/06/19 01:21:11;;;;;;;6.00;5.40;;;21.70;51.40;;;;;;5074775;28;20441;-60
2023/06/19 01:23:40;;;;;;;6.37;5.03;;;21.60;51.40;;;;;;5074230;28;20452;-58
2023/06/19 01:26:07;;;;;;;6.13;5.53;;;21.60;51.50;;;;;;5074516;28;20473;-59
2023/06/19 01:28:36;;;;;;;6.30;5.30;;;21.60;51.70;;;;;;5076040;28;20490;-59
2023/06/19 01:31:04;;;;;;;5.50;5.00;;;21.60;51.70;;;;;;5075120;28;20443;-59
2023/06/19 01:33:33;;;;;;;6.27;5.30;;;21.50;51.80;;;;;;5075097;28;20440;-58
2023/06/19 01:36:01;;;;;;;5.93;5.30;;;21.50;51.90;;;;;;5074731;28;20969;-60
2023/06/19 01:38:29;;;;;;;5.83;5.23;;;21.50;52.10;;;;;;5074544;28;20498;-59
2023/06/19 01:41:00;;;;;;;6.77;6.17;;;21.50;52.20;;;;;;5074352;28;20497;-61
2023/06/19 01:43:28;;;;;;;5.47;4.97;;;21.50;52.30;;;;;;5073948;28;20423;-59
2023/06/19 01:45:54;;;;;;;5.83;5.00;;;21.50;52.50;;;;;;5073753;28;20460;-60
2023/06/19 01:48:21;;;;;;;5.87;5.37;;;21.40;52.40;;;;;;5074026;28;20439;-60
2023/06/19 01:50:49;;;;;;;7.27;6.03;;;21.40;52.60;;;;;;5073932;28;20445;-59
2023/06/19 01:53:15;;;;;;;5.40;4.90;;;21.40;52.70;;;;;;5073589;28;20998;-58
2023/06/19 01:55:43;;;;;;;5.57;4.97;;;21.40;52.80;;;;;;5073687;28;20448;-60
2023/06/19 01:58:11;;;;;;;5.23;4.73;;;21.30;52.80;;;;;;5083830;22;20492;-57
2023/06/19 02:00:37;;;;;;;5.03;4.63;;;21.30;52.90;;;;;;5057321;28;20915;-56
2023/06/19 02:03:05;;;;;;;7.50;5.70;;;21.30;53.10;;;;;;5057287;28;20441;-56
2023/06/19 02:05:32;;;;;;;5.50;4.97;;;21.20;53.10;;;;;;5056528;28;20449;-56
2023/06/19 02:07:59;;;;;;;5.70;5.20;;;21.20;53.20;;;;;;5057217;28;20461;-56
2023/06/19 02:10:25;;;;;;;5.83;5.10;;;21.20;53.30;;;;;;5055912;28;20445;-58
2023/06/19 02:12:52;;;;;;;6.60;5.90;;;21.20;53.40;;;;;;5055859;28;20487;-59
2023/06/19 02:15:20;;;;;;;7.37;5.03;;;21.20;53.40;;;;;;5056660;28;20802;-58
2023/06/19 02:17:47;;;;;;;5.43;4.93;;;21.10;53.40;;;;;;5055164;28;20468;-58
2023/06/19 02:20:14;;;;;;;5.93;5.33;;;21.10;53.50;;;;;;5055937;28;20440;-58
2023/06/19 02:22:41;;;;;;;5.10;4.60;;;21.10;53.60;;;;;;5055666;28;20447;-58
2023/06/19 02:25:08;;;;;;;6.10;5.60;;;21.10;53.60;;;;;;5055463;28;20447;-58
2023/06/19 02:27:35;;;;;;;7.23;5.60;;;21.10;54.10;;;;;;5055774;28;20491;-58
2023/06/19 02:30:03;;;;;;;6.60;5.37;;;21.10;53.40;;;;;;5055544;28;20841;-58
2023/06/19 02:32:31;;;;;;;5.80;5.17;;;21.10;53.40;;;;;;5055381;28;20582;-58
2023/06/19 02:34:58;;;;;;;5.23;4.73;;;21.20;53.40;;;;;;5055802;28;20450;-58
2023/06/19 02:37:25;;;;;;;5.80;5.17;;;21.20;53.40;;;;;;5056104;28;20466;-59
2023/06/19 02:39:52;;;;;;;6.00;5.47;;;21.20;53.30;;;;;;5055893;28;20443;-58
2023/06/19 02:42:18;;;;;;;5.90;5.30;;;21.20;53.90;;;;;;5056281;28;20447;-58
2023/06/19 02:44:45;;;;;;;5.63;5.13;;;21.20;53.40;;;;;;5056132;28;20523;-60
2023/06/19 02:47:12;;;;;;;5.67;5.17;;;21.20;53.40;;;;;;5055654;28;20511;-58
2023/06/19 02:49:40;;;;;;;5.80;5.30;;;21.20;53.40;;;;;;5056080;28;20466;-58
2023/06/19 02:52:08;;;;;;;6.20;4.90;;;21.20;53.40;;;;;;5055743;28;20499;-58
2023/06/19 02:54:35;;;;;;;5.53;5.03;;;21.20;53.40;;;;;;5055638;28;20444;-59
2023/06/19 02:57:02;;;;;;;5.43;4.93;;;21.20;53.40;;;;;;5055187;28;20997;-58
2023/06/19 02:59:29;;;;;;;5.97;5.43;;;21.20;53.40;;;;;;5055489;28;20788;-57
2023/06/19 03:01:55;;;;;;;5.43;4.90;;;21.20;53.30;;;;;;5055392;28;20452;-58
2023/06/19 03:04:22;;;;;;;5.43;4.93;;;21.20;53.30;;;;;;5055129;28;20943;-57
2023/06/19 03:06:50;;;;;;;5.60;5.10;;;21.20;53.20;;;;;;5055014;28;20476;-57
2023/06/19 03:09:17;;;;;;;6.03;5.43;;;21.20;53.20;;;;;;5055606;28;20449;-57
2023/06/19 03:11:44;;;;;;;5.67;5.07;;;21.20;53.30;;;;;;5055341;28;20571;-59
2023/06/19 03:14:11;;;;;;;5.30;4.80;;;21.20;53.90;;;;;;5059917;28;20448;-58
2023/06/19 03:16:38;;;;;;;7.50;5.57;;;21.20;53.30;;;;;;5055898;28;20475;-58
2023/06/19 03:19:04;;;;;;;5.53;5.00;;;21.20;53.40;;;;;;5055465;28;20453;-57
2023/06/19 03:21:31;;;;;;;5.80;5.30;;;21.20;53.40;;;;;;5055650;28;20449;-58
2023/06/19 03:23:59;;;;;;;6.57;5.80;;;21.20;53.50;;;;;;5055768;28;20453;-58
2023/06/19 03:26:27;;;;;;;6.87;5.20;;;21.20;53.50;;;;;;5056382;28;20468;-56
2023/06/19 03:28:53;;;;;;;5.03;4.37;;;21.20;53.50;;;;;;5055033;28;20451;-58
2023/06/19 03:31:20;;;;;;;5.20;4.80;;;21.20;53.50;;;;;;5059802;28;20449;-58
2023/06/19 03:33:47;;;;;;;5.50;5.00;;;21.20;53.50;;;;;;5059892;28;20484;-58
2023/06/19 03:36:14;;;;;;;5.70;5.20;;;21.20;53.50;;;;;;5059222;28;20947;-59
2023/06/19 03:38:41;;;;;;;6.27;5.07;;;21.20;53.50;;;;;;5059593;28;20468;-58
2023/06/19 03:41:09;;;;;;;10.30;5.47;;;21.20;53.40;;;;;;5059577;28;20505;-58
2023/06/19 03:43:36;;;;;;;6.40;5.07;;;21.20;53.30;;;;;;5059756;28;20445;-58
2023/06/19 03:46:02;;;;;;;5.47;5.07;;;21.20;53.20;;;;;;5058405;28;20460;-59
2023/06/19 03:48:29;;;;;;;6.50;5.30;;;21.20;53.10;;;;;;5058982;28;20449;-57
2023/06/19 03:50:56;;;;;;;6.70;4.80;;;21.30;53.10;;;;;;5059023;28;20451;-57
2023/06/19 03:53:23;;;;;;;5.60;5.10;;;21.30;52.90;;;;;;5059086;28;20482;-58
2023/06/19 03:55:50;;;;;;;5.20;4.70;;;21.30;52.80;;;;;;5058739;28;20441;-57
2023/06/19 03:58:18;;;;;;;6.10;5.30;;;21.30;52.70;;;;;;5059467;28;20471;-57
2023/06/19 04:00:45;;;;;;;6.17;5.23;;;21.40;52.60;;;;;;5059648;28;20460;-57
2023/06/19 04:03:11;;;;;;;5.87;5.27;;;21.40;52.50;;;;;;5059676;28;20445;-57
2023/06/19 04:05:38;;;;;;;5.40;4.90;;;21.40;52.40;;;;;;5059298;28;20451;-57
2023/06/19 04:08:05;;;;;;;6.10;5.50;;;21.40;52.30;;;;;;5059524;28;20533;-57
2023/06/19 04:11:49;;;;;;;6.60;5.90;;;21.50;51.80;;;;;;5112406;27;1284853;-57
2023/06/19 04:14:16;;;;;;;6.30;5.70;;;21.50;52.20;;;;;;5135084;28;20437;-57
2023/06/19 04:16:43;;;;;;;6.33;5.37;;;21.50;52.10;;;;;;5130233;28;20466;-57
2023/06/19 04:19:10;;;;;;;5.37;4.87;;;21.50;52.00;;;;;;5116256;28;20438;-57
2023/06/19 04:21:36;;;;;;;5.90;5.40;;;21.50;52.00;;;;;;5116771;28;20439;-59
2023/06/19 04:24:04;;;;;;;6.40;5.60;;;21.50;52.00;;;;;;5117027;28;20443;-58
2023/06/19 04:26:31;;;;;;;6.97;5.23;;;21.60;52.00;;;;;;5119075;28;20464;-57
2023/06/19 04:29:00;;;;;;;5.60;5.10;;;21.60;52.00;;;;;;5114005;28;20441;-58
2023/06/19 04:31:28;;;;;;;7.20;4.93;;;21.60;52.00;;;;;;5113420;28;20475;-58
2023/06/19 04:33:56;;;;;;;6.43;5.83;;;21.60;52.10;;;;;;5113573;28;20450;-58
2023/06/19 04:36:23;;;;;;;9.40;5.97;;;21.60;52.10;;;;;;5113491;28;20510;-58
2023/06/19 04:38:51;;;;;;;5.50;5.00;;;21.60;52.20;;;;;;5112721;28;20439;-57
2023/06/19 04:41:18;;;;;;;8.57;5.63;;;21.50;52.10;;;;;;5113834;28;20435;-57
2023/06/19 04:43:45;;;;;;;6.20;5.70;;;21.60;52.30;;;;;;5113143;28;20445;-58
2023/06/19 04:46:13;;;;;;;6.63;5.77;;;21.60;52.30;;;;;;5112155;28;20545;-58
2023/06/19 04:48:41;;;;;;;6.97;5.87;;;21.60;52.80;;;;;;5113110;28;20829;-57
2023/06/19 04:51:08;;;;;;;6.60;6.00;;;21.60;53.70;;;;;;5112302;28;20841;-58
2023/06/19 04:53:35;;;;;;;5.63;5.17;;;21.50;54.50;;;;;;5112333;28;20443;-58
2023/06/19 04:56:02;;;;;;;7.63;6.30;;;21.50;55.10;;;;;;5112686;28;20799;-58
2023/06/19 04:58:28;;;;;;;6.80;6.10;;;21.40;55.40;;;;;;5111879;28;20976;-58
2023/06/19 05:00:55;;;;;;;6.10;5.57;;;21.40;55.90;;;;;;5112221;28;20450;-55
2023/06/19 05:03:23;;;;;;;6.60;5.87;;;21.30;56.30;;;;;;5113197;28;20573;-57
2023/06/19 05:05:50;;;;;;;7.00;6.30;;;21.30;56.80;;;;;;5112009;28;20449;-57
2023/06/19 05:08:17;;;;;;;7.10;5.70;;;21.20;57.30;;;;;;5112200;28;20462;-58
2023/06/19 05:10:44;;;;;;;6.70;6.10;;;21.20;57.90;;;;;;5111253;28;20864;-57
2023/06/19 05:13:11;;;;;;;6.03;5.43;;;21.20;58.10;;;;;;5112302;28;20927;-58
2023/06/19 05:15:37;;;;;;;6.30;5.70;;;21.20;58.20;;;;;;5112105;28;20453;-57
2023/06/19 05:18:04;;;;;;;6.47;5.70;;;21.20;58.30;;;;;;5112309;28;20461;-58
2023/06/19 05:20:32;;;;;;;6.77;6.10;;;21.20;58.20;;;;;;5112729;28;20448;-57
2023/06/19 05:22:59;;;;;;;6.20;5.60;;;21.20;58.20;;;;;;5100892;28;20453;-58
2023/06/19 05:25:27;;;;;;;6.50;5.90;;;21.20;58.10;;;;;;5099330;28;20441;-57
2023/06/19 05:27:54;;;;;;;7.50;5.57;;;21.20;58.00;;;;;;5098947;28;20976;-57
2023/06/19 05:30:20;;;;;;;7.27;6.60;;;21.20;57.90;;;;;;5098452;28;20846;-57
2023/06/19 05:32:47;;;;;;;10.83;7.10;;;21.20;57.80;;;;;;5098327;28;20536;-57
2023/06/19 05:35:14;;;;;;;7.80;6.90;;;21.30;57.80;;;;;;5098194;28;20450;-57
2023/06/19 05:37:43;;;;;;;8.00;6.00;;;21.40;57.70;;;;;;5098147;28;20493;-57
2023/06/19 05:40:10;;;;;;;6.97;6.23;;;21.50;57.50;;;;;;5098115;28;20447;-57
2023/06/19 05:42:38;;;;;;;7.50;6.23;;;21.50;57.30;;;;;;5098344;28;20456;-58
2023/06/19 05:45:05;;;;;;;7.00;6.40;;;21.60;57.80;;;;;;5099789;28;20448;-59
2023/06/19 05:47:32;;;;;;;6.17;5.67;;;21.70;57.20;;;;;;5099040;28;20457;-56
2023/06/19 05:49:59;;;;;;;7.93;5.97;;;21.80;57.10;;;;;;5097828;28;20438;-57
2023/06/19 05:52:26;;;;;;;6.93;6.33;;;21.90;57.00;;;;;;5097928;28;20448;-58
2023/06/19 05:54:54;;;;;;;10.93;6.40;;;22.00;56.90;;;;;;5098012;28;20444;-58
2023/06/19 05:57:21;;;;;;;11.03;7.10;;;22.10;56.70;;;;;;5097758;28;20995;-58
2023/06/19 05:59:48;;;;;;;6.63;6.03;;;22.20;56.60;;;;;;5097713;28;20951;-58
2023/06/19 06:02:15;;;;;;;6.47;5.87;;;22.20;56.60;;;;;;5097520;28;20529;-58
2023/06/19 06:04:42;;;;;;;6.60;5.97;;;22.20;56.60;;;;;;5097617;28;20965;-59
2023/06/19 06:07:09;;;;;;;7.20;6.50;;;22.30;56.70;;;;;;5097465;28;20503;-58
2023/06/19 06:09:36;;;;;;;7.63;6.23;;;22.30;56.70;;;;;;5097756;28;20468;-59
2023/06/19 06:12:05;;;;;;;6.77;5.67;;;22.40;56.80;;;;;;5097534;28;20481;-57
2023/06/19 06:14:31;;;;;;;7.93;5.43;;;22.50;56.80;;;;;;5098553;28;20560;-57
2023/06/19 06:16:58;;;;;;;10.17;6.70;;;22.60;56.70;;;;;;5097478;28;20476;-57
2023/06/19 06:19:25;;;;;;;6.83;6.23;;;22.70;56.60;;;;;;5096708;28;20931;-58
2023/06/19 06:21:52;;;;;;;8.83;6.70;;;22.90;56.40;;;;;;5097476;28;20467;-56
2023/06/19 06:24:19;;;;;;;7.77;6.93;;;23.10;56.20;;;;;;5097044;28;20449;-57
2023/06/19 06:26:46;;;;;;;6.53;5.93;;;23.10;55.90;;;;;;5097674;28;20476;-58
2023/06/19 06:29:14;;;;;;;7.27;6.57;;;23.10;55.90;;;;;;5097387;28;20529;-58
2023/06/19 06:31:42;;;;;;;8.20;7.47;;;23.20;55.90;;;;;;5097270;28;20478;-58
2023/06/19 06:34:09;;;;;;;7.83;7.03;;;23.20;56.30;;;;;;5097453;28;20460;-58
2023/06/19 06:36:36;;;;;;;9.90;7.93;;;23.10;57.30;;;;;;5097135;28;20466;-57
2023/06/19 06:39:03;;;;;;;8.17;7.37;;;23.00;57.70;;;;;;5097117;28;20446;-57
2023/06/19 06:41:30;;;;;;;7.30;6.60;;;23.00;58.20;;;;;;5096840;28;20438;-56
2023/06/19 06:43:57;;;;;;;9.10;6.07;;;22.90;58.40;;;;;;5096983;28;20438;-60
2023/06/19 06:46:25;;;;;;;11.30;6.90;;;23.00;58.40;;;;;;5096679;28;20473;-59
2023/06/19 06:48:52;;;;;;;8.53;7.30;;;23.10;58.40;;;;;;5096746;28;20442;-57
2023/06/19 06:51:18;;;;;;;9.20;7.50;;;23.20;58.20;;;;;;5095962;28;20475;-58
2023/06/19 06:53:45;;;;;;;7.77;6.97;;;23.40;58.10;;;;;;5096784;28;20442;-57
2023/06/19 06:56:12;;;;;;;8.80;6.70;;;23.50;57.70;;;;;;5095809;28;20523;-59
2023/06/19 06:58:39;;;;;;;7.30;6.70;;;23.70;57.40;;;;;;5096635;28;20749;-57
2023/06/19 07:01:06;;;;;;;9.50;6.77;;;23.80;56.90;;;;;;5096348;28;20472;-57
2023/06/19 07:03:34;;;;;;;8.00;6.70;;;23.90;56.40;;;;;;5097812;28;20531;-58
2023/06/19 07:06:02;;;;;;;6.60;5.93;;;24.10;56.20;;;;;;5097255;28;20446;-58
2023/06/19 07:08:29;;;;;;;7.30;5.80;;;24.10;55.70;;;;;;5096604;28;20475;-58
2023/06/19 07:10:56;;;;;;;8.30;6.70;;;24.20;55.40;;;;;;5095736;28;20543;-57
2023/06/19 07:13:22;;;;;;;7.73;6.80;;;24.30;55.10;;;;;;5095759;28;20826;-58
2023/06/19 07:15:49;;;;;;;6.77;6.17;;;24.40;54.70;;;;;;5095326;28;20965;-58
2023/06/19 07:18:16;;;;;;;6.90;6.30;;;24.60;54.10;;;;;;5095968;28;20532;-57
2023/06/19 07:20:44;;;;;;;6.97;6.30;;;24.70;53.60;;;;;;5096227;28;20437;-58
2023/06/19 07:23:11;;;;;;;6.97;5.97;;;24.80;53.30;;;;;;5095734;28;20457;-58
2023/06/19 07:25:38;;;;;;;7.80;7.10;;;25.00;52.90;;;;;;5095477;28;20452;-57
2023/06/19 07:28:05;;;;;;;7.20;6.50;;;25.20;52.40;;;;;;5095675;28;20561;-58
2023/06/19 07:30:32;;;;;;;7.93;7.27;;;25.50;51.90;;;;;;5095184;28;20447;-58
2023/06/19 07:32:59;;;;;;;7.20;6.50;;;25.90;51.20;;;;;;5095274;28;20444;-59
2023/06/19 07:35:25;;;;;;;9.63;7.03;;;26.20;50.40;;;;;;5095477;28;20444;-58
2023/06/19 07:37:54;;;;;;;7.43;6.83;;;26.50;49.50;;;;;;5094579;28;20469;-57
2023/06/19 07:40:20;;;;;;;8.13;7.33;;;26.70;48.90;;;;;;5094655;28;20540;-57
2023/06/19 07:42:47;;;;;;;7.20;6.60;;;26.90;48.70;;;;;;5094623;28;20436;-57
2023/06/19 07:45:14;;;;;;;14.27;7.13;;;26.90;48.60;;;;;;5094414;28;20454;-58
2023/06/19 07:47:41;;;;;;;7.23;6.63;;;27.00;48.60;;;;;;5094135;28;20530;-57
2023/06/19 07:50:08;;;;;;;7.40;6.03;;;27.10;48.60;;;;;;5094278;28;20445;-57
2023/06/19 07:52:35;;;;;;;7.80;7.10;;;27.10;48.60;;;;;;5094723;28;20489;-58
2023/06/19 07:55:04;;;;;;;6.97;6.30;;;27.10;48.80;;;;;;5093948;28;20473;-57
2023/06/19 07:57:31;;;;;;;7.13;6.43;;;27.10;48.80;;;;;;5109163;22;20573;-60
2023/06/19 07:59:58;;;;;;;8.03;7.23;;;27.30;48.90;;;;;;5075202;28;20458;-59
2023/06/19 08:02:24;;;;;;;7.43;6.03;;;27.50;48.60;;;;;;5073612;28;20534;-60
2023/06/19 08:04:51;;;;;;;7.60;6.90;;;27.60;48.40;;;;;;5073378;28;20444;-61
2023/06/19 08:07:18;;;;;;;8.47;6.70;;;27.70;48.40;;;;;;5079964;28;20476;-59
2023/06/19 08:09:45;;;;;;;7.03;6.40;;;28.00;48.10;;;;;;5093893;28;20454;-61
2023/06/19 08:12:13;;;;;;;9.30;7.20;;;28.20;47.80;;;;;;5092775;28;20476;-59
2023/06/19 08:14:40;;;;;;;7.40;6.70;;;28.30;47.60;;;;;;5093019;28;20489;-61
2023/06/19 08:17:07;;;;;;;7.50;6.53;;;28.40;47.50;;;;;;5093064;28;20559;-60
2023/06/19 08:19:34;;;;;;;8.70;7.80;;;28.40;47.50;;;;;;5094064;28;20445;-59
2023/06/19 08:22:00;;;;;;;10.00;6.87;;;28.40;47.60;;;;;;5093146;28;20463;-60
2023/06/19 08:24:27;;;;;;;7.50;6.80;;;28.40;47.50;;;;;;5094916;28;20528;-63
2023/06/19 08:26:54;;;;;;;7.87;7.17;;;28.50;47.40;;;;;;5093823;28;21083;-60
2023/06/19 08:29:23;;;;;;;8.23;7.43;;;28.50;47.40;;;;;;5094354;28;20452;-60
2023/06/19 08:31:50;;;;;;;7.97;7.27;;;28.60;47.20;;;;;;5092898;28;21010;-60
2023/06/19 08:34:16;;;;;;;7.83;6.80;;;28.50;47.00;;;;;;5092880;28;20451;-61
2023/06/19 08:36:43;;;;;;;6.50;5.80;;;28.50;47.10;;;;;;5092455;28;20941;-61
2023/06/19 08:39:10;;;;;;;6.80;6.13;;;28.60;47.00;;;;;;5092644;28;20454;-61
2023/06/19 08:41:38;;;;;;;6.87;6.23;;;28.70;46.90;;;;;;5092336;28;20445;-59
2023/06/19 08:44:05;;;;;;;7.03;5.70;;;28.70;46.90;;;;;;5092760;28;20459;-59
2023/06/19 08:46:36;;;;;;;6.47;5.97;;;28.70;47.20;;;;;;5093228;28;20444;-59
2023/06/19 08:49:06;;;;;;;6.60;5.90;;;28.60;47.30;;;;;;5093242;28;20430;-60
2023/06/19 08:51:33;;;;;;;5.87;5.37;;;28.50;47.60;;;;;;5095698;28;21011;-59
2023/06/19 08:54:03;;;;;;;6.20;5.60;;;28.50;47.70;;;;;;5095348;28;20457;-59
2023/06/19 08:56:33;;;;;;;6.97;6.37;;;28.60;47.80;;;;;;5092628;28;20626;-60
2023/06/19 08:59:09;;;;;;;6.50;6.00;;;28.50;47.80;;;;;;5095992;28;20430;-60
2023/06/19 09:01:37;;;;;;;6.37;5.77;;;28.30;48.20;;;;;;5096552;28;20423;-60
2023/06/19 09:04:10;;;;;;;6.77;6.27;;;28.20;48.50;;;;;;5096316;28;20435;-60
2023/06/19 09:06:38;;;;;;;6.60;6.00;;;28.40;48.40;;;;;;5096458;28;20842;-59
2023/06/19 09:09:10;;;;;;;6.07;5.53;;;28.40;48.60;;;;;;5095868;28;20496;-61
2023/06/19 09:11:43;;;;;;;7.30;6.60;;;28.30;48.40;;;;;;5096279;28;20468;-60
2023/06/19 09:14:10;;;;;;;7.43;6.70;;;28.40;48.40;;;;;;5097183;28;20447;-60
2023/06/19 09:16:42;;;;;;;6.40;5.90;;;28.50;48.20;;;;;;5096210;28;20946;-60
2023/06/19 09:19:09;;;;;;;8.27;5.63;;;28.70;48.30;;;;;;5097390;28;20949;-60
2023/06/19 09:21:38;;;;;;;7.00;6.40;;;28.80;48.10;;;;;;5096485;28;20483;-60
2023/06/19 09:24:06;;;;;;;6.70;6.20;;;29.10;47.80;;;;;;5095850;28;20973;-60
2023/06/19 09:26:33;;;;;;;6.67;6.13;;;29.30;47.50;;;;;;5096590;28;20439;-59
2023/06/19 09:29:11;;;;;;;7.87;7.07;;;29.50;47.30;;;;;;5096108;28;20445;-59
2023/06/19 09:31:39;;;;;;;6.87;6.27;;;29.50;47.20;;;;;;5096290;28;20550;-58
2023/06/19 09:34:07;;;;;;;6.97;6.37;;;29.30;47.30;;;;;;5095633;28;20473;-60
2023/06/19 09:36:34;;;;;;;6.93;6.03;;;29.20;47.70;;;;;;5095491;28;20540;-60
2023/06/19 09:39:02;;;;;;;6.47;5.87;;;29.20;47.80;;;;;;5095122;28;20443;-61
2023/06/19 09:41:30;;;;;;;7.47;6.50;;;29.10;47.90;;;;;;5095418;28;20942;-60
2023/06/19 09:43:59;;;;;;;7.53;6.10;;;29.10;47.90;;;;;;5095688;28;20451;-60
2023/06/19 09:46:30;;;;;;;6.60;6.10;;;29.30;47.50;;;;;;5095392;28;20558;-61
2023/06/19 09:49:01;;;;;;;10.60;6.33;;;29.30;47.40;;;;;;5095391;28;20438;-60
2023/06/19 09:51:32;;;;;;;6.73;5.50;;;29.30;47.90;;;;;;5095370;28;20425;-61
2023/06/19 09:54:00;;;;;;;6.53;5.67;;;29.40;47.30;;;;;;5096119;28;20807;-61
2023/06/19 09:56:28;;;;;;;7.97;5.57;;;29.60;47.60;;;;;;5095493;28;20447;-61
2023/06/19 09:58:59;;;;;;;6.53;5.70;;;29.40;46.70;;;;;;5095233;28;20439;-61
2023/06/19 10:01:28;;;;;;;5.97;5.47;;;29.40;47.00;;;;;;5095238;28;20517;-60
2023/06/19 10:04:04;;;;;;;6.43;5.50;;;29.40;47.10;;;;;;5095498;28;20853;-60
2023/06/19 10:06:32;;;;;;;7.97;7.17;;;29.60;47.00;;;;;;5095414;28;20460;-62
2023/06/19 10:09:07;;;;;;;6.30;5.33;;;29.80;46.80;;;;;;5095025;28;20450;-62
2023/06/19 10:11:47;;;;;;;8.40;6.27;;;29.80;46.70;;;;;;5095035;28;20436;-61
2023/06/19 10:14:13;;;;;;;6.53;5.23;;;29.90;46.70;;;;;;5095084;28;20478;-62
2023/06/19 10:16:42;;;;;;;5.90;5.30;;;29.70;46.80;;;;;;5095083;28;20444;-60
2023/06/19 10:19:14;;;;;;;8.40;5.97;;;29.60;47.20;;;;;;5094512;28;20813;-61
2023/06/19 10:21:52;;;;;;;6.27;5.67;;;29.40;47.50;;;;;;5094951;28;20437;-59
2023/06/19 10:24:21;;;;;;;6.33;5.73;;;29.40;47.60;;;;;;5094585;28;20976;-60
2023/06/19 10:26:59;;;;;;;5.20;4.80;;;29.30;47.60;;;;;;5094508;28;20557;-60
2023/06/19 10:29:27;;;;;;;4.60;4.20;;;29.20;47.90;;;;;;5095142;28;20480;-61
2023/06/19 10:31:56;;;;;;;6.10;4.60;;;29.10;48.30;;;;;;5094500;28;20491;-58
2023/06/19 10:34:23;;;;;;;7.10;4.63;;;28.80;49.10;;;;;;5094705;28;20444;-61
2023/06/19 10:36:58;;;;;;;11.27;5.40;;;28.50;49.70;;;;;;5093995;28;20844;-62
2023/06/19 10:39:25;;;;;;;6.20;4.77;;;28.50;50.00;;;;;;5094575;28;20535;-61
2023/06/19 10:41:51;;;;;;;6.50;5.90;;;28.70;50.00;;;;;;5094445;28;20445;-60
2023/06/19 10:44:18;;;;;;;8.37;5.20;;;28.80;49.80;;;;;;5095381;28;20520;-61
2023/06/19 10:46:45;;;;;;;4.90;4.20;;;28.90;49.70;;;;;;5094228;28;20451;-61
2023/06/19 10:49:13;;;;;;;5.23;4.73;;;29.00;49.50;;;;;;5094052;28;20449;-61
2023/06/19 10:51:43;;;;;;;5.43;4.67;;;29.00;49.20;;;;;;5094223;28;20448;-59
2023/06/19 10:54:11;;;;;;;6.53;5.20;;;29.10;49.80;;;;;;5094488;28;20437;-61
2023/06/19 10:56:38;;;;;;;5.80;5.10;;;29.30;49.00;;;;;;5093767;28;20959;-62
2023/06/19 10:59:08;;;;;;;5.80;4.70;;;29.60;48.50;;;;;;5094525;28;20467;-61
2023/06/19 11:01:36;;;;;;;4.87;4.47;;;29.80;48.00;;;;;;5094219;28;20546;-60
2023/06/19 11:04:04;;;;;;;5.13;4.70;;;29.70;47.80;;;;;;5094003;28;20449;-59
2023/06/19 11:06:32;;;;;;;4.80;4.20;;;29.70;47.50;;;;;;5094822;28;20820;-62
2023/06/19 11:09:00;;;;;;;5.70;4.20;;;29.60;47.60;;;;;;5094863;28;20517;-59
2023/06/19 11:11:38;;;;;;;6.27;4.70;;;29.40;47.90;;;;;;5093920;28;20961;-60
2023/06/19 11:14:05;;;;;;;4.80;3.90;;;29.30;48.20;;;;;;5093762;28;20425;-61
2023/06/19 11:16:33;;;;;;;4.60;3.73;;;29.40;48.10;;;;;;5093797;28;20448;-61
2023/06/19 11:19:01;;;;;;;4.13;3.73;;;29.50;47.70;;;;;;5093056;28;20448;-60
2023/06/19 11:21:32;;;;;;;4.20;3.80;;;29.70;47.50;;;;;;5093291;28;20441;-60
2023/06/19 11:24:00;;;;;;;3.87;3.57;;;29.70;47.40;;;;;;5094398;28;20439;-60
2023/06/19 11:26:27;;;;;;;3.90;3.30;;;29.70;47.40;;;;;;5093282;28;20942;-60
2023/06/19 11:28:55;;;;;;;3.50;3.20;;;29.70;47.30;;;;;;5094222;28;20520;-60
2023/06/19 11:31:27;;;;;;;6.20;3.50;;;29.50;47.40;;;;;;5093659;28;20441;-60
2023/06/19 11:33:58;;;;;;;4.77;3.87;;;29.50;47.50;;;;;;5093480;28;20479;-60
2023/06/19 11:36:25;;;;;;;6.00;3.10;;;29.70;47.10;;;;;;5093332;28;20515;-63
2023/06/19 11:38:53;;;;;;;3.50;3.20;;;30.10;46.30;;;;;;5093694;28;20455;-60
2023/06/19 11:41:27;;;;;;;3.00;2.80;;;30.30;45.80;;;;;;5093553;28;20448;-59
2023/06/19 11:44:30;;;;;;;3.20;2.90;;;30.30;45.10;;;;;;5098628;28;20422;-63
2023/06/19 11:46:59;;;;;;;3.43;3.13;;;30.10;45.20;;;;;;5093325;28;20782;-63
2023/06/19 11:49:26;;;;;;;5.00;3.40;;;30.20;45.10;;;;;;5093200;28;20453;-64
2023/06/19 11:51:53;;;;;;;2.83;2.63;;;30.40;44.90;;;;;;5093779;28;20451;-61
2023/06/19 11:54:20;;;;;;;5.80;2.87;;;30.40;44.60;;;;;;5094375;28;20434;-58
2023/06/19 11:56:48;;;;;;;3.20;2.90;;;30.50;44.50;;;;;;5092893;28;20538;-59
2023/06/19 11:59:15;;;;;;;3.40;3.10;;;30.70;44.30;;;;;;5093465;28;20440;-61
2023/06/19 12:01:42;;;;;;;2.93;2.73;;;31.00;43.70;;;;;;5093728;28;20456;-60
2023/06/19 12:04:10;;;;;;;3.13;2.93;;;31.10;43.50;;;;;;5093279;28;20454;-60
2023/06/19 12:06:37;;;;;;;3.13;2.93;;;31.10;43.40;;;;;;5093165;28;20489;-60
2023/06/19 12:09:05;;;;;;;3.80;3.20;;;31.20;43.30;;;;;;5093999;28;20443;-59
2023/06/19 12:11:32;;;;;;;8.73;3.60;;;31.70;43.00;;;;;;5093342;28;20453;-59
2023/06/19 12:13:59;;;;;;;5.47;3.60;;;32.40;42.00;;;;;;5093525;28;20476;-60
2023/06/19 12:16:28;;;;;;;5.30;4.80;;;32.30;41.70;;;;;;5094390;28;20862;-60
2023/06/19 12:18:55;;;;;;;6.43;4.40;;;31.80;42.50;;;;;;5093633;28;20487;-60
2023/06/19 12:21:23;;;;;;;5.73;3.93;;;31.40;43.20;;;;;;5094757;28;20452;-63
2023/06/19 12:23:50;;;;;;;4.63;4.33;;;30.90;43.80;;;;;;5094283;28;20538;-63
2023/06/19 12:26:16;;;;;;;4.97;4.57;;;30.30;44.80;;;;;;5094853;28;20448;-62
2023/06/19 12:28:43;;;;;;;5.27;4.73;;;29.80;45.80;;;;;;5093082;28;21025;-65
2023/06/19 12:31:10;;;;;;;5.10;4.70;;;29.80;46.80;;;;;;5094319;28;20446;-63
2023/06/19 12:33:42;;;;;;;5.07;4.60;;;30.20;45.60;;;;;;5097072;28;20486;-64
2023/06/19 12:36:12;;;;;;;4.73;4.33;;;30.80;44.80;;;;;;5097062;28;20436;-64
2023/06/19 12:38:40;;;;;;;4.33;3.93;;;31.30;43.50;;;;;;5097243;28;20503;-63
2023/06/19 12:41:07;;;;;;;4.30;3.90;;;31.40;43.10;;;;;;5098134;28;20447;-62
2023/06/19 12:43:34;;;;;;;4.60;4.20;;;31.60;42.90;;;;;;5096810;28;20437;-62
2023/06/19 12:46:02;;;;;;;4.30;3.90;;;31.40;42.70;;;;;;5096858;28;20464;-64
2023/06/19 12:48:29;;;;;;;5.13;4.73;;;31.10;43.20;;;;;;5096532;28;20475;-63
2023/06/19 12:50:56;;;;;;;4.97;4.60;;;30.90;43.40;;;;;;5097102;28;20451;-63